createdAt,value
2022-11-20T00:00:29.784Z,19.20
2022-11-20T00:01:29.792Z,18.90
2022-11-20T00:02:29.933Z,18.80
2022-11-20T00:03:29.759Z,19.60
2022-11-20T00:04:29.748Z,18.90
2022-11-20T00:05:29.739Z,19.40
2022-11-20T00:06:29.718Z,18.90
2022-11-20T00:07:29.807Z,19.50
2022-11-20T00:08:29.703Z,18.50
2022-11-20T00:09:29.699Z,19.10
2022-11-20T00:10:29.689Z,19.00
2022-11-20T00:11:29.682Z,19.70
2022-11-20T00:12:29.663Z,20.20
2022-11-20T00:13:29.822Z,20.10
2022-11-20T00:14:29.646Z,18.70
2022-11-20T00:15:29.633Z,19.50
2022-11-20T00:16:29.615Z,20.00
2022-11-20T00:17:29.615Z,20.50
2022-11-20T00:18:29.772Z,19.90
2022-11-20T00:19:29.591Z,20.80
2022-11-20T00:20:29.582Z,20.60
2022-11-20T00:21:29.637Z,20.50
2022-11-20T00:22:29.553Z,20.40
2022-11-20T00:23:29.552Z,20.90
2022-11-20T00:24:29.895Z,21.10
2022-11-20T00:25:29.528Z,20.50
2022-11-20T00:26:29.526Z,20.40
2022-11-20T00:27:29.514Z,20.60
2022-11-20T00:28:29.527Z,20.50
2022-11-20T00:29:29.481Z,19.30
2022-11-20T00:30:29.654Z,20.80
2022-11-20T00:31:29.466Z,20.60
2022-11-20T00:32:29.471Z,20.50
2022-11-20T00:33:29.443Z,20.70
2022-11-20T00:34:29.435Z,20.20
2022-11-20T00:35:29.652Z,20.40
2022-11-20T00:36:29.407Z,20.20
2022-11-20T00:37:29.394Z,20.40
2022-11-20T00:38:29.389Z,21.20
2022-11-20T00:39:29.378Z,21.20
2022-11-20T00:40:29.380Z,19.20
2022-11-20T00:41:29.513Z,20.70
2022-11-20T00:42:29.341Z,20.00
2022-11-20T00:43:29.330Z,21.00
2022-11-20T00:44:29.335Z,19.90
2022-11-20T00:45:29.364Z,20.40
2022-11-20T00:46:29.312Z,21.40
2022-11-20T00:47:29.469Z,21.10
2022-11-20T00:48:29.281Z,20.70
2022-11-20T00:49:29.274Z,20.50
2022-11-20T00:50:29.258Z,20.80
2022-11-20T00:51:29.286Z,21.30
2022-11-20T00:52:29.229Z,22.00
2022-11-20T00:53:29.411Z,20.70
2022-11-20T00:54:29.228Z,22.10
2022-11-20T00:55:29.200Z,21.40
2022-11-20T00:56:29.217Z,21.70
2022-11-20T00:57:29.187Z,20.10
2022-11-20T00:58:29.179Z,21.50
2022-11-20T00:59:29.423Z,21.00
2022-11-20T01:00:29.206Z,21.00
2022-11-20T01:01:29.177Z,21.40
2022-11-20T01:02:29.127Z,21.60
2022-11-20T01:03:29.129Z,20.50
2022-11-20T01:04:29.172Z,20.90
2022-11-20T01:05:29.396Z,21.70
2022-11-20T01:06:29.155Z,20.80
2022-11-20T01:07:29.314Z,20.50
2022-11-20T01:08:29.104Z,21.00
2022-11-20T01:09:29.056Z,21.20
2022-11-20T01:10:29.044Z,20.60
2022-11-20T01:11:29.032Z,21.40
2022-11-20T01:12:29.207Z,21.60
2022-11-20T01:13:29.024Z,21.70
2022-11-20T01:14:29.054Z,21.10
2022-11-20T01:15:29.011Z,21.00
2022-11-20T01:16:29.004Z,20.80
2022-11-20T01:17:28.982Z,21.50
2022-11-20T01:18:29.155Z,21.20
2022-11-20T01:19:28.972Z,20.70
2022-11-20T01:20:28.952Z,21.70
2022-11-20T01:21:28.945Z,20.90
2022-11-20T01:22:28.949Z,21.80
2022-11-20T01:23:28.941Z,21.20
2022-11-20T01:24:29.092Z,21.10
2022-11-20T01:25:28.884Z,19.70
2022-11-20T01:26:28.883Z,21.90
2022-11-20T01:27:28.862Z,21.90
2022-11-20T01:28:28.856Z,21.80
2022-11-20T01:29:28.845Z,21.10
2022-11-20T01:30:28.997Z,21.70
2022-11-20T01:31:28.829Z,20.20
2022-11-20T01:32:28.817Z,22.20
2022-11-20T01:33:28.810Z,21.50
2022-11-20T01:34:28.792Z,21.00
2022-11-20T01:35:29.017Z,22.50
2022-11-20T01:36:28.797Z,22.00
2022-11-20T01:37:28.767Z,22.00
2022-11-20T01:38:28.751Z,21.00
2022-11-20T01:39:28.739Z,22.00
2022-11-20T01:40:28.735Z,21.60
2022-11-20T01:41:28.897Z,21.30
2022-11-20T01:42:28.719Z,21.10
2022-11-20T01:43:28.693Z,21.70
2022-11-20T01:44:28.689Z,22.50
2022-11-20T01:45:28.681Z,20.60
2022-11-20T01:46:28.663Z,21.60
2022-11-20T01:47:28.813Z,21.40
2022-11-20T01:48:28.645Z,21.50
2022-11-20T01:49:28.639Z,21.10
2022-11-20T01:50:28.621Z,21.70
2022-11-20T01:51:28.632Z,21.20
2022-11-20T01:52:28.607Z,21.70
2022-11-20T01:53:28.768Z,22.20
2022-11-20T01:54:28.581Z,21.20
2022-11-20T01:55:28.569Z,22.30
2022-11-20T01:56:28.569Z,22.30
2022-11-20T01:57:28.540Z,22.50
2022-11-20T01:58:28.546Z,20.90
2022-11-20T01:59:28.690Z,22.00
2022-11-20T02:00:28.515Z,21.90
2022-11-20T02:01:28.580Z,22.50
2022-11-20T02:02:28.493Z,22.30
2022-11-20T02:03:28.488Z,20.90
2022-11-20T02:04:28.638Z,21.90
2022-11-20T02:05:28.480Z,22.40
2022-11-20T02:06:28.509Z,22.00
2022-11-20T02:07:28.478Z,22.50
2022-11-20T02:08:28.438Z,23.10
2022-11-20T02:09:28.415Z,22.60
2022-11-20T02:10:28.757Z,23.20
2022-11-20T02:11:28.383Z,23.80
2022-11-20T02:12:28.394Z,22.90
2022-11-20T02:13:28.390Z,23.70
2022-11-20T02:14:28.363Z,22.60
2022-11-20T02:15:30.489Z,22.90
2022-11-20T02:16:28.492Z,20.50
2022-11-20T02:17:28.343Z,21.30
2022-11-20T02:18:28.319Z,22.70
2022-11-20T02:19:28.484Z,22.60
2022-11-20T02:20:28.298Z,21.50
2022-11-20T02:21:28.462Z,21.40
2022-11-20T02:22:28.276Z,22.10
2022-11-20T02:23:28.267Z,21.00
2022-11-20T02:24:28.261Z,21.50
2022-11-20T02:25:28.245Z,21.80
2022-11-20T02:26:28.229Z,20.60
2022-11-20T02:27:28.408Z,21.10
2022-11-20T02:28:28.226Z,21.60
2022-11-20T02:29:28.207Z,20.30
2022-11-20T02:30:28.192Z,21.50
2022-11-20T02:31:28.187Z,20.80
2022-11-20T02:32:28.360Z,21.00
2022-11-20T02:33:28.158Z,20.80
2022-11-20T02:34:28.151Z,20.40
2022-11-20T02:35:28.137Z,21.30
2022-11-20T02:36:28.117Z,21.50
2022-11-20T02:37:28.120Z,21.10
2022-11-20T02:38:28.281Z,21.30
2022-11-20T02:39:28.094Z,20.60
2022-11-20T02:40:28.108Z,20.90
2022-11-20T02:41:28.069Z,20.30
2022-11-20T02:42:28.067Z,21.80
2022-11-20T02:43:28.232Z,21.00
2022-11-20T02:44:28.040Z,21.10
2022-11-20T02:45:28.047Z,21.40
2022-11-20T02:46:28.028Z,21.50
2022-11-20T02:47:28.014Z,22.10
2022-11-20T02:48:30.220Z,20.50
2022-11-20T02:49:29.217Z,20.90
2022-11-20T02:50:27.986Z,20.40
2022-11-20T02:51:27.966Z,21.10
2022-11-20T02:52:27.961Z,20.80
2022-11-20T02:53:27.945Z,22.10
2022-11-20T02:54:27.935Z,21.60
2022-11-20T02:55:28.094Z,20.30
2022-11-20T02:56:27.919Z,21.30
2022-11-20T02:57:27.909Z,21.20
2022-11-20T02:58:27.901Z,21.80
2022-11-20T02:59:27.904Z,21.50
2022-11-20T03:00:27.925Z,21.00
2022-11-20T03:01:28.215Z,21.70
2022-11-20T03:02:27.852Z,21.50
2022-11-20T03:03:27.843Z,21.30
2022-11-20T03:04:27.830Z,21.70
2022-11-20T03:05:27.831Z,20.60
2022-11-20T03:06:27.972Z,20.80
2022-11-20T03:07:27.851Z,21.60
2022-11-20T03:08:27.795Z,20.90
2022-11-20T03:09:27.781Z,21.30
2022-11-20T03:10:28.011Z,20.60
2022-11-20T03:11:27.760Z,21.00
2022-11-20T03:12:27.753Z,21.30
2022-11-20T03:13:27.732Z,21.60
2022-11-20T03:14:27.730Z,19.80
2022-11-20T03:15:27.722Z,20.60
2022-11-20T03:16:28.036Z,20.30
2022-11-20T03:17:27.693Z,20.50
2022-11-20T03:18:27.712Z,20.50
2022-11-20T03:19:27.677Z,21.30
2022-11-20T03:20:27.660Z,19.10
2022-11-20T03:21:27.650Z,20.30
2022-11-20T03:22:27.808Z,20.90
2022-11-20T03:23:27.638Z,21.00
2022-11-20T03:24:27.623Z,20.10
2022-11-20T03:25:27.608Z,20.70
2022-11-20T03:26:27.611Z,22.00
2022-11-20T03:27:27.582Z,20.50
2022-11-20T03:28:27.736Z,21.60
2022-11-20T03:29:27.566Z,21.10
2022-11-20T03:30:30.505Z,21.50
2022-11-20T03:31:27.544Z,21.10
2022-11-20T03:32:27.704Z,22.10
2022-11-20T03:33:27.530Z,21.60
2022-11-20T03:34:27.516Z,21.90
2022-11-20T03:35:27.696Z,21.70
2022-11-20T03:36:27.498Z,22.10
2022-11-20T03:37:27.489Z,22.80
2022-11-20T03:38:27.475Z,21.40
2022-11-20T03:39:27.466Z,22.40
2022-11-20T03:40:27.451Z,22.70
2022-11-20T03:41:27.622Z,22.40
2022-11-20T03:42:27.756Z,21.80
2022-11-20T03:43:27.419Z,23.40
2022-11-20T03:44:27.405Z,23.00
2022-11-20T03:45:27.419Z,23.40
2022-11-20T03:46:27.393Z,22.50
2022-11-20T03:47:27.381Z,24.50
2022-11-20T03:48:27.551Z,23.20
2022-11-20T03:49:27.357Z,23.30
2022-11-20T03:50:27.350Z,22.60
2022-11-20T03:51:27.343Z,23.00
2022-11-20T03:52:27.320Z,23.00
2022-11-20T03:53:27.321Z,23.40
2022-11-20T03:54:27.515Z,22.70
2022-11-20T03:55:27.301Z,22.80
2022-11-20T03:56:27.283Z,22.10
2022-11-20T03:57:27.332Z,22.10
2022-11-20T03:58:27.268Z,21.90
2022-11-20T03:59:27.422Z,22.90
2022-11-20T04:00:27.616Z,22.00
2022-11-20T04:01:27.304Z,21.90
2022-11-20T04:02:27.219Z,21.40
2022-11-20T04:03:27.208Z,21.30
2022-11-20T04:04:27.212Z,22.20
2022-11-20T04:05:27.202Z,20.60
2022-11-20T04:06:27.348Z,23.70
2022-11-20T04:07:27.263Z,22.80
2022-11-20T04:08:27.154Z,22.20
2022-11-20T04:09:27.153Z,23.40
2022-11-20T04:10:27.135Z,21.60
2022-11-20T04:11:27.297Z,22.20
2022-11-20T04:12:27.106Z,23.80
2022-11-20T04:13:27.113Z,21.50
2022-11-20T04:14:27.096Z,21.90
2022-11-20T04:15:27.079Z,23.30
2022-11-20T04:16:27.246Z,23.40
2022-11-20T04:17:27.068Z,24.00
2022-11-20T04:18:27.045Z,22.80
2022-11-20T04:19:27.030Z,22.90
2022-11-20T04:20:27.036Z,23.50
2022-11-20T04:21:27.275Z,23.50
2022-11-20T04:22:27.027Z,23.20
2022-11-20T04:23:28.795Z,23.60
2022-11-20T04:24:26.999Z,25.40
2022-11-20T04:25:26.974Z,24.70
2022-11-20T04:26:26.976Z,24.20
2022-11-20T04:27:27.124Z,23.30
2022-11-20T04:28:26.951Z,24.60
2022-11-20T04:29:26.944Z,24.40
2022-11-20T04:30:26.931Z,26.00
2022-11-20T04:31:26.922Z,24.80
2022-11-20T04:32:27.276Z,25.60
2022-11-20T04:33:28.957Z,25.30
2022-11-20T04:34:26.883Z,25.50
2022-11-20T04:35:26.874Z,25.40
2022-11-20T04:36:26.860Z,27.50
2022-11-20T04:37:26.851Z,26.50
2022-11-20T04:38:27.001Z,25.80
2022-11-20T04:39:26.831Z,27.20
2022-11-20T04:40:26.825Z,27.90
2022-11-20T04:41:26.823Z,27.00
2022-11-20T04:42:26.790Z,27.10
2022-11-20T04:43:27.027Z,26.10
2022-11-20T04:44:26.781Z,25.40
2022-11-20T04:45:26.770Z,26.50
2022-11-20T04:46:26.764Z,26.00
2022-11-20T04:47:26.756Z,26.80
2022-11-20T04:48:26.752Z,27.40
2022-11-20T04:49:27.013Z,27.20
2022-11-20T04:50:26.722Z,27.40
2022-11-20T04:51:26.707Z,27.50
2022-11-20T04:52:26.698Z,26.90
2022-11-20T04:53:26.694Z,27.60
2022-11-20T04:54:26.670Z,26.40
2022-11-20T04:55:26.823Z,27.20
2022-11-20T04:56:27.001Z,26.60
2022-11-20T04:57:26.640Z,28.00
2022-11-20T04:58:26.634Z,27.30
2022-11-20T04:59:26.626Z,28.50
2022-11-20T05:00:26.620Z,26.70
2022-11-20T05:01:26.658Z,26.10
2022-11-20T05:02:26.802Z,28.50
2022-11-20T05:03:26.574Z,26.40
2022-11-20T05:04:26.589Z,27.30
2022-11-20T05:05:26.556Z,26.30
2022-11-20T05:06:26.553Z,27.10
2022-11-20T05:07:26.586Z,26.40
2022-11-20T05:08:26.684Z,26.60
2022-11-20T05:09:26.515Z,26.70
2022-11-20T05:10:26.510Z,25.60
2022-11-20T05:11:26.506Z,26.20
2022-11-20T05:12:26.492Z,25.50
2022-11-20T05:13:26.633Z,27.80
2022-11-20T05:14:26.631Z,25.50
2022-11-20T05:15:26.455Z,26.90
2022-11-20T05:16:26.450Z,26.10
2022-11-20T05:17:26.432Z,26.80
2022-11-20T05:18:26.427Z,25.60
2022-11-20T05:19:26.581Z,26.40
2022-11-20T05:20:26.403Z,29.90
2022-11-20T05:21:26.396Z,30.50
2022-11-20T05:22:26.383Z,27.70
2022-11-20T05:23:26.371Z,28.50
2022-11-20T05:24:26.531Z,28.70
2022-11-20T05:25:26.363Z,28.30
2022-11-20T05:26:26.342Z,29.10
2022-11-20T05:27:26.340Z,29.20
2022-11-20T05:28:26.323Z,27.70
2022-11-20T05:29:26.314Z,27.30
2022-11-20T05:30:26.517Z,26.80
2022-11-20T05:31:27.978Z,27.20
2022-11-20T05:32:26.287Z,27.10
2022-11-20T05:33:26.280Z,26.70
2022-11-20T05:34:26.304Z,28.90
2022-11-20T05:35:27.938Z,26.90
2022-11-20T05:36:26.743Z,27.20
2022-11-20T05:37:26.234Z,26.90
2022-11-20T05:38:26.220Z,27.50
2022-11-20T05:39:26.295Z,25.40
2022-11-20T05:40:26.198Z,26.80
2022-11-20T05:41:26.190Z,26.20
2022-11-20T05:42:26.331Z,25.70
2022-11-20T05:43:26.172Z,26.90
2022-11-20T05:44:26.157Z,27.20
2022-11-20T05:45:26.140Z,26.70
2022-11-20T05:46:28.768Z,26.30
2022-11-20T05:47:26.123Z,26.50
2022-11-20T05:48:26.103Z,26.60
2022-11-20T05:49:26.094Z,27.50
2022-11-20T05:50:26.120Z,26.90
2022-11-20T05:51:26.083Z,26.80
2022-11-20T05:52:26.234Z,26.00
2022-11-20T05:53:27.721Z,26.10
2022-11-20T05:54:26.041Z,26.10
2022-11-20T05:55:26.038Z,26.90
2022-11-20T05:56:26.057Z,25.40
2022-11-20T05:57:26.176Z,28.40
2022-11-20T05:58:26.003Z,27.50
2022-11-20T05:59:25.991Z,26.70
2022-11-20T06:00:25.982Z,27.50
2022-11-20T06:01:25.985Z,27.60
2022-11-20T06:02:26.179Z,28.70
2022-11-20T06:03:25.955Z,29.20
2022-11-20T06:04:27.737Z,29.40
2022-11-20T06:05:26.895Z,27.90
2022-11-20T06:06:25.929Z,27.60
2022-11-20T06:07:26.895Z,28.10
2022-11-20T06:08:26.070Z,30.60
2022-11-20T06:09:25.918Z,29.60
2022-11-20T06:10:25.872Z,27.10
2022-11-20T06:11:25.889Z,27.60
2022-11-20T06:12:25.878Z,30.00
2022-11-20T06:13:25.862Z,28.60
2022-11-20T06:14:26.081Z,27.80
2022-11-20T06:15:25.829Z,28.00
2022-11-20T06:16:25.829Z,28.10
2022-11-20T06:17:25.801Z,26.60
2022-11-20T06:18:25.803Z,29.00
2022-11-20T06:19:25.782Z,27.40
2022-11-20T06:20:25.936Z,27.00
2022-11-20T06:21:25.773Z,27.70
2022-11-20T06:22:25.763Z,28.20
2022-11-20T06:23:25.746Z,28.80
2022-11-20T06:24:25.737Z,28.50
2022-11-20T06:25:25.892Z,28.50
2022-11-20T06:26:25.875Z,28.10
2022-11-20T06:27:25.709Z,27.50
2022-11-20T06:28:25.690Z,28.30
2022-11-20T06:29:28.859Z,28.40
2022-11-20T06:30:26.844Z,26.90
2022-11-20T06:31:25.663Z,27.60
2022-11-20T06:32:25.657Z,27.90
2022-11-20T06:33:25.636Z,28.10
2022-11-20T06:34:25.636Z,27.60
2022-11-20T06:35:25.626Z,25.00
2022-11-20T06:36:25.777Z,27.90
2022-11-20T06:37:25.600Z,26.80
2022-11-20T06:38:25.584Z,28.60
2022-11-20T06:39:25.583Z,29.20
2022-11-20T06:40:25.569Z,28.60
2022-11-20T06:41:25.553Z,28.80
2022-11-20T06:42:25.765Z,26.70
2022-11-20T06:43:25.535Z,28.00
2022-11-20T06:44:25.524Z,29.30
2022-11-20T06:45:25.529Z,29.00
2022-11-20T06:46:25.506Z,27.20
2022-11-20T06:47:25.491Z,28.00
2022-11-20T06:48:25.714Z,28.10
2022-11-20T06:49:25.578Z,26.50
2022-11-20T06:50:25.461Z,26.60
2022-11-20T06:51:25.451Z,27.40
2022-11-20T06:52:25.466Z,25.90
2022-11-20T06:53:25.592Z,27.40
2022-11-20T06:54:25.433Z,28.80
2022-11-20T06:55:25.410Z,28.00
2022-11-20T06:56:25.412Z,26.50
2022-11-20T06:57:25.426Z,26.70
2022-11-20T06:58:25.389Z,25.80
2022-11-20T06:59:25.710Z,28.40
2022-11-20T07:00:25.359Z,26.00
2022-11-20T07:01:25.408Z,26.20
2022-11-20T07:02:25.360Z,27.00
2022-11-20T07:03:25.338Z,27.40
2022-11-20T07:04:25.327Z,28.10
2022-11-20T07:05:25.469Z,27.20
2022-11-20T07:06:25.308Z,28.00
2022-11-20T07:07:25.346Z,26.40
2022-11-20T07:08:25.284Z,26.40
2022-11-20T07:09:25.529Z,25.80
2022-11-20T07:10:25.416Z,25.80
2022-11-20T07:11:25.320Z,25.70
2022-11-20T07:12:25.256Z,25.90
2022-11-20T07:13:25.316Z,25.00
2022-11-20T07:14:25.223Z,23.00
2022-11-20T07:15:25.237Z,24.60
2022-11-20T07:16:25.359Z,24.10
2022-11-20T07:17:25.183Z,23.20
2022-11-20T07:18:25.222Z,22.80
2022-11-20T07:19:25.232Z,23.10
2022-11-20T07:20:25.174Z,22.20
2022-11-20T07:21:25.178Z,23.40
2022-11-20T07:22:25.284Z,22.50
2022-11-20T07:23:25.150Z,21.80
2022-11-20T07:24:25.104Z,23.30
2022-11-20T07:25:25.096Z,23.10
2022-11-20T07:26:25.128Z,23.30
2022-11-20T07:29:42.199Z,22.70
2022-11-20T07:30:42.009Z,24.10
2022-11-20T07:31:41.990Z,25.10
2022-11-20T07:32:41.988Z,23.30
2022-11-20T07:33:41.982Z,22.50
2022-11-20T07:34:42.000Z,21.90
2022-11-20T07:35:42.161Z,22.70
2022-11-20T07:36:41.950Z,23.90
2022-11-20T07:37:41.961Z,23.10
2022-11-20T07:38:41.931Z,24.10
2022-11-20T07:39:41.924Z,22.50
2022-11-20T07:40:41.906Z,21.70
2022-11-20T07:41:42.051Z,21.30
2022-11-20T07:42:41.884Z,20.40
2022-11-20T07:43:41.997Z,21.10
2022-11-20T07:44:41.860Z,21.30
2022-11-20T07:45:41.855Z,19.90
2022-11-20T07:46:42.008Z,21.00
2022-11-20T07:47:41.835Z,20.90
2022-11-20T07:48:41.825Z,20.10
2022-11-20T07:49:41.829Z,20.20
2022-11-20T07:50:41.800Z,19.80
2022-11-20T07:51:41.802Z,19.90
2022-11-20T07:52:41.999Z,21.30
2022-11-20T07:53:41.771Z,20.10
2022-11-20T07:54:41.788Z,19.60
2022-11-20T07:55:41.745Z,20.00
2022-11-20T07:56:41.745Z,20.00
2022-11-20T07:57:41.732Z,20.10
2022-11-20T07:58:41.883Z,19.10
2022-11-20T07:59:41.694Z,20.20
2022-11-20T08:00:41.741Z,21.20
2022-11-20T08:01:41.692Z,20.00
2022-11-20T08:02:41.713Z,19.10
2022-11-20T08:03:41.657Z,20.50
2022-11-20T08:04:41.812Z,20.00
2022-11-20T08:05:41.644Z,19.00
2022-11-20T08:06:41.634Z,18.00
2022-11-20T08:07:41.753Z,20.10
2022-11-20T08:08:43.053Z,18.50
2022-11-20T08:09:41.622Z,19.60
2022-11-20T08:10:41.745Z,19.20
2022-11-20T08:11:41.585Z,18.10
2022-11-20T08:12:41.582Z,19.00
2022-11-20T08:13:41.560Z,18.80
2022-11-20T08:14:41.546Z,19.00
2022-11-20T08:15:41.700Z,19.00
2022-11-20T08:16:41.545Z,19.10
2022-11-20T08:17:41.513Z,17.70
2022-11-20T08:18:41.500Z,19.80
2022-11-20T08:19:41.489Z,18.80
2022-11-20T08:20:41.492Z,18.60
2022-11-20T08:21:41.647Z,19.00
2022-11-20T08:22:41.458Z,18.60
2022-11-20T08:23:41.447Z,19.80
2022-11-20T08:24:41.465Z,18.90
2022-11-20T08:25:41.423Z,18.50
2022-11-20T08:26:41.409Z,18.60
2022-11-20T08:27:41.557Z,19.40
2022-11-20T08:28:41.400Z,19.30
2022-11-20T08:29:41.395Z,19.40
2022-11-20T08:30:41.372Z,19.20
2022-11-20T08:31:41.358Z,21.10
2022-11-20T08:32:41.346Z,19.70
2022-11-20T08:33:41.501Z,19.30
2022-11-20T08:34:41.324Z,18.50
2022-11-20T08:35:41.315Z,18.60
2022-11-20T08:36:41.306Z,18.10
2022-11-20T08:37:41.297Z,18.10
2022-11-20T08:38:41.483Z,17.50
2022-11-20T08:39:41.275Z,19.10
2022-11-20T08:40:41.269Z,18.60
2022-11-20T08:41:41.268Z,19.10
2022-11-20T08:42:41.249Z,19.10
2022-11-20T08:43:41.235Z,19.40
2022-11-20T08:44:41.374Z,18.70
2022-11-20T08:45:41.207Z,18.90
2022-11-20T08:46:41.208Z,18.20
2022-11-20T08:47:41.184Z,17.10
2022-11-20T08:48:41.184Z,17.80
2022-11-20T08:49:41.361Z,17.80
2022-11-20T08:50:41.160Z,18.40
2022-11-20T08:51:41.144Z,18.50
2022-11-20T08:52:41.140Z,18.00
2022-11-20T08:53:41.123Z,17.00
2022-11-20T08:54:41.113Z,17.30
2022-11-20T08:55:41.262Z,17.80
2022-11-20T08:56:41.108Z,18.40
2022-11-20T08:57:41.080Z,17.40
2022-11-20T08:59:09.878Z,18.60
2022-11-20T09:00:04.946Z,17.10
2022-11-20T09:00:42.258Z,18.30
2022-11-20T09:01:41.042Z,18.30
2022-11-20T09:02:41.215Z,18.20
2022-11-20T09:03:41.016Z,18.30
2022-11-20T09:04:41.001Z,19.10
2022-11-20T09:05:40.996Z,19.00
2022-11-20T09:06:40.992Z,19.30
2022-11-20T09:07:41.529Z,20.30
2022-11-20T09:08:40.957Z,19.60
2022-11-20T09:09:40.950Z,19.90
2022-11-20T09:10:40.943Z,20.00
2022-11-20T09:11:40.934Z,21.10
2022-11-20T09:12:40.923Z,21.30
2022-11-20T09:13:41.080Z,20.90
2022-11-20T09:14:40.908Z,23.20
2022-11-20T09:15:41.043Z,20.50
2022-11-20T09:16:40.880Z,19.90
2022-11-20T09:17:40.870Z,18.30
2022-11-20T09:18:40.856Z,18.60
2022-11-20T09:19:41.082Z,19.20
2022-11-20T09:20:41.009Z,17.20
2022-11-20T09:21:40.815Z,17.30
2022-11-20T09:22:40.807Z,15.80
2022-11-20T09:23:40.894Z,16.10
2022-11-20T09:24:40.795Z,16.00
2022-11-20T09:25:40.947Z,14.50
2022-11-20T09:26:40.775Z,16.00
2022-11-20T09:27:40.756Z,14.60
2022-11-20T09:28:40.753Z,14.20
2022-11-20T09:29:40.739Z,13.80
2022-11-20T09:30:40.736Z,14.20
2022-11-20T09:31:40.873Z,13.90
2022-11-20T09:32:40.713Z,13.90
2022-11-20T09:33:40.868Z,13.40
2022-11-20T09:34:40.692Z,14.20
2022-11-20T09:35:40.671Z,13.80
2022-11-20T09:36:40.910Z,14.80
2022-11-20T09:37:40.643Z,14.20
2022-11-20T09:38:40.660Z,14.90
2022-11-20T09:39:40.628Z,14.90
2022-11-20T09:40:40.629Z,13.70
2022-11-20T09:41:40.611Z,14.70
2022-11-20T09:42:40.790Z,15.60
2022-11-20T09:43:42.561Z,15.00
2022-11-20T09:44:40.598Z,15.40
2022-11-20T09:45:40.562Z,16.30
2022-11-20T09:46:40.551Z,15.80
2022-11-20T09:47:41.681Z,16.50
2022-11-20T09:48:40.527Z,16.40
2022-11-20T09:49:40.520Z,15.90
2022-11-20T09:50:40.519Z,17.80
2022-11-20T09:51:40.508Z,17.50
2022-11-20T09:52:40.490Z,16.90
2022-11-20T09:53:40.646Z,16.20
2022-11-20T09:54:40.475Z,17.30
2022-11-20T09:55:40.460Z,17.30
2022-11-20T09:56:40.453Z,17.10
2022-11-20T09:57:40.429Z,17.20
2022-11-20T09:58:40.652Z,16.50
2022-11-20T09:59:40.423Z,17.00
2022-11-20T10:00:40.422Z,15.60
2022-11-20T10:01:40.392Z,15.40
2022-11-20T10:02:40.383Z,15.20
2022-11-20T10:03:40.369Z,16.20
2022-11-20T10:04:40.919Z,15.50
2022-11-20T10:05:40.528Z,15.10
2022-11-20T10:06:40.337Z,16.70
2022-11-20T10:07:40.362Z,14.70
2022-11-20T10:08:40.306Z,15.70
2022-11-20T10:09:40.307Z,15.50
2022-11-20T10:10:43.742Z,15.60
2022-11-20T10:11:40.276Z,15.60
2022-11-20T10:12:40.280Z,15.20
2022-11-20T10:13:40.255Z,15.40
2022-11-20T10:14:40.247Z,15.00
2022-11-20T10:15:40.235Z,14.20
2022-11-20T10:16:41.369Z,15.60
2022-11-20T10:17:40.220Z,14.50
2022-11-20T10:18:40.205Z,14.70
2022-11-20T10:19:40.204Z,15.40
2022-11-20T10:20:40.189Z,14.70
2022-11-20T10:21:40.354Z,14.70
2022-11-20T10:22:40.169Z,15.40
2022-11-20T10:23:40.160Z,15.50
2022-11-20T10:24:40.143Z,15.50
2022-11-20T10:25:40.137Z,15.70
2022-11-20T10:26:40.124Z,15.40
2022-11-20T10:27:40.293Z,15.50
2022-11-20T10:28:40.104Z,14.80
2022-11-20T10:29:40.085Z,15.50
2022-11-20T10:30:40.137Z,15.10
2022-11-20T10:31:40.263Z,14.90
2022-11-20T10:32:40.193Z,14.50
2022-11-20T10:34:05.128Z,14.50
2022-11-20T10:34:41.044Z,14.30
2022-11-20T10:35:40.032Z,13.70
2022-11-20T10:36:40.012Z,14.20
2022-11-20T10:37:40.166Z,13.40
2022-11-20T10:38:40.010Z,14.00
2022-11-20T10:39:39.981Z,13.60
2022-11-20T10:40:39.978Z,13.30
2022-11-20T10:41:39.974Z,14.60
2022-11-20T10:42:40.117Z,14.40
2022-11-20T10:43:39.931Z,14.30
2022-11-20T10:44:39.936Z,13.80
2022-11-20T10:45:39.920Z,14.20
2022-11-20T10:46:39.909Z,13.30
2022-11-20T10:47:40.069Z,13.30
2022-11-20T10:48:39.894Z,13.10
2022-11-20T10:49:39.901Z,12.70
2022-11-20T10:50:39.876Z,12.10
2022-11-20T10:51:39.857Z,11.90
2022-11-20T10:52:40.040Z,11.70
2022-11-20T10:53:39.842Z,10.60
2022-11-20T10:54:39.827Z,9.80
2022-11-20T10:55:39.812Z,9.40
2022-11-20T10:56:39.806Z,9.60
2022-11-20T10:57:39.801Z,9.40
2022-11-20T10:58:39.993Z,9.00
2022-11-20T10:59:39.932Z,9.50
2022-11-20T11:00:39.804Z,9.80
2022-11-20T11:01:39.746Z,10.20
2022-11-20T11:02:39.743Z,10.20
2022-11-20T11:03:39.727Z,9.00
2022-11-20T11:04:39.898Z,8.70
2022-11-20T11:05:39.706Z,8.30
2022-11-20T11:06:39.699Z,8.90
2022-11-20T11:07:39.722Z,8.70
2022-11-20T11:08:39.669Z,8.90
2022-11-20T11:09:39.665Z,8.40
2022-11-20T11:10:39.827Z,8.10
2022-11-20T11:11:39.650Z,8.20
2022-11-20T11:12:39.626Z,8.40
2022-11-20T11:13:39.620Z,8.30
2022-11-20T11:14:39.616Z,8.10
2022-11-20T11:15:39.791Z,8.40
2022-11-20T11:16:39.778Z,8.60
2022-11-20T11:17:39.586Z,8.80
2022-11-20T11:18:39.565Z,9.10
2022-11-20T11:19:39.558Z,9.00
2022-11-20T11:20:39.559Z,9.30
2022-11-20T11:21:39.704Z,9.40
2022-11-20T11:22:39.526Z,9.50
2022-11-20T11:23:39.507Z,9.30
2022-11-20T11:24:42.869Z,9.60
2022-11-20T11:25:39.494Z,10.20
2022-11-20T11:26:39.668Z,9.10
2022-11-20T11:27:39.474Z,9.00
2022-11-20T11:28:39.458Z,10.00
2022-11-20T11:29:39.448Z,9.10
2022-11-20T11:30:39.434Z,8.70
2022-11-20T11:31:39.427Z,9.50
2022-11-20T11:32:39.595Z,10.00
2022-11-20T11:33:39.399Z,9.70
2022-11-20T11:34:39.405Z,9.70
2022-11-20T11:35:39.385Z,9.90
2022-11-20T11:36:39.387Z,10.30
2022-11-20T11:37:39.360Z,9.40
2022-11-20T11:38:39.516Z,10.40
2022-11-20T11:39:39.344Z,9.90
2022-11-20T11:40:39.339Z,10.10
2022-11-20T11:41:39.321Z,10.80
2022-11-20T11:42:39.485Z,9.90
2022-11-20T11:43:39.295Z,10.80
2022-11-20T11:44:39.295Z,10.20
2022-11-20T11:45:39.279Z,10.60
2022-11-20T11:46:39.260Z,10.60
2022-11-20T11:47:39.261Z,9.80
2022-11-20T11:48:39.399Z,10.60
2022-11-20T11:49:39.232Z,10.90
2022-11-20T11:50:39.221Z,10.50
2022-11-20T11:51:39.222Z,10.60
2022-11-20T11:52:39.204Z,10.40
2022-11-20T11:53:39.370Z,11.40
2022-11-20T11:54:39.194Z,11.10
2022-11-20T11:55:39.204Z,11.30
2022-11-20T11:56:39.157Z,10.90
2022-11-20T11:57:39.141Z,11.20
2022-11-20T11:58:39.138Z,11.30
2022-11-20T11:59:39.286Z,10.60
2022-11-20T12:00:39.118Z,11.30
2022-11-20T12:01:39.117Z,11.30
2022-11-20T12:02:39.149Z,11.30
2022-11-20T12:03:39.077Z,11.10
2022-11-20T12:04:39.250Z,11.40
2022-11-20T12:05:39.066Z,11.40
2022-11-20T12:06:39.049Z,11.40
2022-11-20T12:07:46.666Z,11.50
2022-11-20T12:08:40.089Z,11.30
2022-11-20T12:09:39.196Z,11.60
2022-11-20T12:10:39.007Z,11.70
2022-11-20T12:11:38.998Z,11.70
2022-11-20T12:12:38.989Z,12.10
2022-11-20T12:13:38.981Z,12.10
2022-11-20T12:14:38.967Z,12.10
2022-11-20T12:15:39.109Z,11.60
2022-11-20T12:16:38.947Z,10.90
2022-11-20T12:17:38.935Z,12.40
2022-11-20T12:18:38.950Z,11.80
2022-11-20T12:19:38.912Z,12.10
2022-11-20T12:20:38.913Z,12.60
2022-11-20T12:21:39.360Z,13.20
2022-11-20T12:22:38.874Z,12.40
2022-11-20T12:23:38.869Z,13.20
2022-11-20T12:24:38.859Z,12.80
2022-11-20T12:25:38.875Z,12.60
2022-11-20T12:26:38.834Z,12.80
2022-11-20T12:27:39.004Z,12.40
2022-11-20T12:28:38.818Z,12.50
2022-11-20T12:29:39.033Z,12.50
2022-11-20T12:30:38.795Z,12.50
2022-11-20T12:31:38.784Z,13.10
2022-11-20T12:32:39.024Z,13.30
2022-11-20T12:33:38.763Z,13.20
2022-11-20T12:34:38.752Z,13.00
2022-11-20T12:35:38.751Z,13.30
2022-11-20T12:36:38.723Z,12.30
2022-11-20T12:37:38.894Z,13.00
2022-11-20T12:38:38.722Z,12.70
2022-11-20T12:39:38.691Z,13.50
2022-11-20T12:40:38.680Z,13.30
2022-11-20T12:41:38.684Z,12.50
2022-11-20T12:42:38.669Z,13.40
2022-11-20T12:43:38.831Z,13.10
2022-11-20T12:44:38.647Z,13.10
2022-11-20T12:45:38.629Z,12.50
2022-11-20T12:46:38.622Z,12.40
2022-11-20T12:47:38.610Z,13.00
2022-11-20T12:48:41.164Z,12.40
2022-11-20T12:49:39.748Z,13.20
2022-11-20T12:50:53.403Z,12.40
2022-11-20T12:51:39.576Z,12.60
2022-11-20T12:52:38.568Z,12.20
2022-11-20T12:53:38.560Z,12.70
2022-11-20T12:54:38.706Z,13.40
2022-11-20T12:55:38.517Z,12.40
2022-11-20T12:56:38.517Z,12.50